Time;durP1;ratioP1;P1;durP2;ratioP2;P2;SDS_P1;SDS_P2;PMS_P1;PMS_P2;Temp;Humidity;BMP_temperature;BMP_pressure;BME280_temperature;BME280_humidity;BME280_pressure;Samples;Min_cycle;Max_cycle;Signal;HPM_P1;HPM_P2
2021/10/02 00:36:37;;;;;;;11.50;6.90;;;14.60;99.90;;;;;;5069307;28;20395;-56
2021/10/02 00:44:40;;;;;;;12.27;6.53;;;14.70;99.90;;;;;;5070435;28;20407;-56
2021/10/02 00:47:12;;;;;;;11.88;7.10;;;14.80;99.90;;;;;;5070130;28;20444;-56
2021/10/02 00:49:40;;;;;;;12.95;7.13;;;14.80;99.90;;;;;;5069475;28;20465;-56
2021/10/02 00:52:13;;;;;;;12.60;7.18;;;13.90;99.90;;;;;;5068826;28;20391;-56
2021/10/02 00:54:39;;;;;;;12.55;7.10;;;14.80;99.90;;;;;;5069119;28;20386;-56
2021/10/02 00:57:06;;;;;;;11.95;7.05;;;14.80;99.90;;;;;;5070001;28;20931;-56
2021/10/02 00:59:32;;;;;;;13.45;7.70;;;14.80;99.90;;;;;;5069257;28;20380;-56
2021/10/02 01:02:23;;;;;;;12.52;8.00;;;14.80;99.90;;;;;;5070200;28;20380;-56
2021/10/02 01:05:11;;;;;;;12.63;7.60;;;14.80;99.90;;;;;;5070087;28;20409;-56
2021/10/02 01:08:22;;;;;;;11.90;7.80;;;14.80;99.90;;;;;;5069029;28;20926;-56
2021/10/02 01:11:25;;;;;;;13.85;7.70;;;14.90;99.90;;;;;;5053254;28;20485;-56
2021/10/02 01:14:06;;;;;;;14.45;8.27;;;14.90;99.90;;;;;;5069961;28;20388;-56
2021/10/02 01:16:40;;;;;;;14.90;8.00;;;15.00;99.90;;;;;;5069250;28;20888;-56
2021/10/02 01:19:05;;;;;;;13.23;7.80;;;14.90;99.90;;;;;;5070240;28;20411;-56
2021/10/02 01:21:36;;;;;;;15.52;8.02;;;14.90;99.90;;;;;;5068827;28;20484;-56
2021/10/02 01:24:20;;;;;;;13.15;7.22;;;15.00;99.90;;;;;;5069950;28;20395;-56
2021/10/02 01:27:07;;;;;;;14.95;7.78;;;15.00;99.90;;;;;;5069476;28;20392;-56
2021/10/02 01:29:35;;;;;;;12.85;7.30;;;14.90;99.90;;;;;;5068533;28;20895;-57
2021/10/02 01:32:09;;;;;;;13.38;6.93;;;14.80;99.90;;;;;;5069337;28;20461;-54
2021/10/02 01:37:53;;;;;;;13.93;8.00;;;14.90;99.90;;;;;;5069464;28;20447;-57
2021/10/02 01:48:17;;;;;;;14.40;7.53;;;14.80;99.90;;;;;;5069446;28;20427;-56
2021/10/02 01:50:45;;;;;;;14.15;7.80;;;14.80;99.90;;;;;;5067395;28;20668;-56
2021/10/02 01:53:12;;;;;;;11.50;7.05;;;14.70;99.90;;;;;;5069490;28;20450;-56
2021/10/02 01:55:40;;;;;;;12.77;7.32;;;14.60;99.90;;;;;;5068620;28;20593;-56
2021/10/02 01:58:09;;;;;;;13.57;7.20;;;14.60;99.90;;;;;;5069459;28;20505;-56
2021/10/02 02:00:48;;;;;;;12.50;7.90;;;14.70;99.90;;;;;;5068611;28;20404;-56
2021/10/02 02:03:18;;;;;;;15.60;7.90;;;14.70;99.90;;;;;;5068282;28;20840;-56
2021/10/02 02:05:45;;;;;;;14.07;7.87;;;14.50;99.90;;;;;;5068586;28;20425;-56
2021/10/02 02:08:15;;;;;;;11.30;6.53;;;14.50;99.90;;;;;;5068668;28;20421;-56
2021/10/02 02:10:42;;;;;;;12.27;8.10;;;14.50;99.90;;;;;;5068713;28;20391;-55
2021/10/02 02:13:09;;;;;;;14.38;8.00;;;14.40;99.90;;;;;;5068920;28;20750;-56
2021/10/02 02:15:36;;;;;;;12.93;8.00;;;14.40;99.90;;;;;;5068271;28;20877;-56
2021/10/02 02:18:05;;;;;;;12.27;7.40;;;14.40;99.90;;;;;;5069456;28;20459;-56
2021/10/02 02:20:36;;;;;;;16.77;7.83;;;14.50;99.90;;;;;;5068636;28;20411;-56
2021/10/02 02:23:04;;;;;;;11.52;7.05;;;14.50;99.90;;;;;;5069147;28;20498;-56
2021/10/02 02:25:30;;;;;;;12.60;7.15;;;14.60;99.90;;;;;;5100573;28;20410;-56
2021/10/02 02:27:56;;;;;;;13.63;7.40;;;14.60;99.90;;;;;;5069237;28;20384;-56
2021/10/02 02:30:22;;;;;;;13.40;7.40;;;14.60;99.90;;;;;;5068960;28;20384;-57
2021/10/02 02:32:52;;;;;;;11.90;7.50;;;14.60;99.90;;;;;;5069144;28;20699;-56
2021/10/02 02:35:19;;;;;;;11.82;7.35;;;14.60;99.90;;;;;;5069257;28;20816;-56
2021/10/02 02:37:45;;;;;;;14.48;7.63;;;14.60;99.90;;;;;;5068048;28;20417;-56
2021/10/02 02:40:10;;;;;;;12.38;7.32;;;14.60;99.90;;;;;;5069075;28;20463;-56
2021/10/02 02:42:37;;;;;;;12.40;7.40;;;14.50;99.90;;;;;;5070597;28;20384;-56
2021/10/02 02:45:05;;;;;;;11.00;7.28;;;14.50;99.90;;;;;;5072372;28;20376;-56
2021/10/02 02:47:32;;;;;;;11.82;7.30;;;14.50;99.90;;;;;;5072435;28;20479;-56
2021/10/02 02:50:09;;;;;;;12.55;7.63;;;14.40;99.90;;;;;;5072623;28;20380;-56
2021/10/02 02:52:58;;;;;;;13.60;7.10;;;14.30;99.90;;;;;;5071973;28;20483;-56
2021/10/02 02:55:27;;;;;;;13.20;7.35;;;14.30;99.90;;;;;;5071876;28;20420;-57
2021/10/02 02:58:05;;;;;;;14.50;7.80;;;14.40;99.90;;;;;;5072569;28;20461;-56
2021/10/02 03:00:32;;;;;;;12.73;7.45;;;14.30;99.90;;;;;;5071365;28;20455;-55
2021/10/02 03:03:05;;;;;;;12.85;7.80;;;14.30;99.90;;;;;;5070869;28;20384;-55
2021/10/02 03:05:32;;;;;;;13.35;7.65;;;14.40;99.90;;;;;;5071842;28;20405;-55
2021/10/02 03:08:02;;;;;;;14.50;7.88;;;14.40;99.90;;;;;;5104309;28;20455;-55
2021/10/02 03:10:29;;;;;;;13.65;8.35;;;14.30;99.90;;;;;;5071326;28;20429;-56
2021/10/02 03:12:58;;;;;;;13.18;7.60;;;14.20;99.90;;;;;;5072358;28;20849;-55
2021/10/02 03:15:25;;;;;;;16.48;7.95;;;14.10;99.90;;;;;;5071561;28;20387;-56
2021/10/02 03:17:51;;;;;;;15.57;8.70;;;14.00;99.90;;;;;;5071909;28;20451;-55
2021/10/02 03:20:18;;;;;;;14.68;9.70;;;14.00;99.90;;;;;;5071697;28;20430;-55
2021/10/02 03:22:47;;;;;;;15.80;9.55;;;14.00;99.90;;;;;;5071260;28;20383;-55
2021/10/02 03:25:13;;;;;;;18.05;9.50;;;14.00;99.90;;;;;;5071860;28;20372;-54
2021/10/02 03:27:41;;;;;;;16.95;10.48;;;14.00;99.90;;;;;;5070760;28;20384;-55
2021/10/02 03:30:07;;;;;;;15.88;10.00;;;14.00;99.90;;;;;;5070651;28;20399;-55
2021/10/02 03:32:33;;;;;;;14.93;8.83;;;14.00;99.90;;;;;;5070942;28;20474;-55
2021/10/02 03:34:59;;;;;;;17.25;9.57;;;14.00;99.90;;;;;;5071651;28;20487;-55
2021/10/02 03:37:25;;;;;;;15.87;10.27;;;13.90;99.90;;;;;;5071123;28;20396;-57
2021/10/02 03:39:53;;;;;;;15.50;9.30;;;13.90;99.90;;;;;;5071241;28;20416;-55
2021/10/02 03:42:22;;;;;;;16.33;10.50;;;14.00;99.90;;;;;;5071610;28;20383;-55
2021/10/02 03:44:52;;;;;;;16.92;11.00;;;14.00;99.90;;;;;;5070767;28;20387;-55
2021/10/02 03:47:21;;;;;;;17.98;10.48;;;14.00;99.90;;;;;;5071403;28;20392;-55
2021/10/02 03:49:47;;;;;;;15.38;9.40;;;14.00;99.90;;;;;;5070425;28;20386;-55
2021/10/02 03:52:14;;;;;;;15.93;9.18;;;14.00;99.90;;;;;;5071466;28;20390;-55
2021/10/02 03:54:41;;;;;;;16.50;9.50;;;14.10;99.90;;;;;;5069620;28;20406;-55
2021/10/02 03:57:07;;;;;;;19.98;10.70;;;14.10;99.90;;;;;;5071091;28;20524;-55
2021/10/02 03:59:32;;;;;;;16.95;10.07;;;14.10;99.90;;;;;;5070219;28;20418;-55
2021/10/02 04:01:58;;;;;;;19.13;10.57;;;14.10;99.90;;;;;;5071073;28;20909;-55
2021/10/02 04:04:24;;;;;;;16.73;9.70;;;14.10;99.90;;;;;;5071020;28;20721;-56
2021/10/02 04:06:51;;;;;;;18.52;10.30;;;15.20;99.90;;;;;;5070945;28;20387;-55
2021/10/02 04:09:18;;;;;;;19.85;10.80;;;13.90;99.90;;;;;;5070737;28;20376;-55
2021/10/02 04:11:44;;;;;;;19.45;11.68;;;13.90;99.90;;;;;;5070317;28;20391;-55
2021/10/02 04:14:11;;;;;;;17.65;10.95;;;13.90;99.90;;;;;;5070832;28;20380;-55
2021/10/02 04:16:36;;;;;;;22.52;12.20;;;13.90;99.90;;;;;;5069796;28;20401;-55
2021/10/02 04:19:02;;;;;;;19.27;11.30;;;14.00;99.90;;;;;;5071309;28;20808;-55
2021/10/02 04:21:28;;;;;;;21.45;11.60;;;13.90;99.90;;;;;;5070306;28;20431;-57
2021/10/02 04:23:54;;;;;;;19.65;11.60;;;13.80;99.90;;;;;;5069589;28;20536;-54
2021/10/02 04:26:21;;;;;;;18.30;10.80;;;13.70;99.90;;;;;;5070752;28;20466;-55
2021/10/02 04:28:49;;;;;;;18.30;11.43;;;13.80;99.90;;;;;;5069942;28;20928;-55
2021/10/02 04:31:16;;;;;;;18.65;10.70;;;13.80;99.90;;;;;;5074809;28;20878;-55
2021/10/02 04:33:44;;;;;;;18.20;11.23;;;13.80;99.90;;;;;;5074428;28;20380;-55
2021/10/02 04:36:10;;;;;;;20.80;11.48;;;13.80;99.90;;;;;;5087630;28;20398;-53
2021/10/02 04:38:36;;;;;;;19.23;11.98;;;13.70;99.90;;;;;;5079605;28;20805;-53
2021/10/02 04:41:02;;;;;;;22.27;11.50;;;13.80;99.90;;;;;;5076656;28;20441;-55
2021/10/02 04:43:28;;;;;;;18.67;11.23;;;13.90;99.90;;;;;;5078247;28;20370;-56
2021/10/02 04:45:54;;;;;;;17.73;10.50;;;13.90;99.90;;;;;;5078881;28;20382;-56
2021/10/02 04:48:20;;;;;;;18.70;12.50;;;14.00;99.90;;;;;;5076058;28;20376;-56
2021/10/02 04:50:45;;;;;;;17.23;10.68;;;14.00;99.90;;;;;;5068339;28;20486;-54
2021/10/02 04:53:11;;;;;;;19.73;11.13;;;14.00;99.90;;;;;;5078919;28;21043;-53
2021/10/02 04:55:36;;;;;;;16.77;11.13;;;14.10;99.90;;;;;;5089468;28;20394;-53
2021/10/02 04:58:02;;;;;;;23.07;11.97;;;14.10;99.90;;;;;;5090686;28;20394;-54
2021/10/02 05:00:28;;;;;;;18.95;11.27;;;14.00;99.90;;;;;;5089908;28;20460;-55
2021/10/02 05:02:55;;;;;;;19.07;11.23;;;14.00;99.90;;;;;;5090186;28;20443;-54
2021/10/02 05:05:20;;;;;;;19.48;11.48;;;13.80;99.90;;;;;;5077135;28;20472;-54
2021/10/02 05:07:46;;;;;;;21.35;12.48;;;13.60;99.90;;;;;;5083964;28;20445;-54
2021/10/02 05:10:12;;;;;;;18.53;10.83;;;13.50;99.90;;;;;;5069736;28;20711;-54
2021/10/02 05:12:37;;;;;;;19.77;11.50;;;13.50;99.90;;;;;;5101419;28;20384;-54
2021/10/02 05:15:03;;;;;;;19.40;12.07;;;13.50;99.90;;;;;;5069790;28;20426;-54
2021/10/02 05:17:29;;;;;;;20.15;11.70;;;13.50;99.90;;;;;;5068941;28;20406;-55
2021/10/02 05:19:55;;;;;;;18.07;11.83;;;13.50;99.90;;;;;;5069900;28;20842;-54
2021/10/02 05:22:21;;;;;;;19.35;11.63;;;13.40;99.90;;;;;;5070160;28;20378;-54
2021/10/02 05:24:47;;;;;;;22.00;11.55;;;13.40;99.90;;;;;;5070186;28;20386;-54
2021/10/02 05:27:13;;;;;;;17.27;11.20;;;13.40;99.90;;;;;;5073043;28;20394;-54
2021/10/02 05:29:40;;;;;;;19.55;11.43;;;13.30;99.90;;;;;;5075847;28;20421;-54
2021/10/02 05:32:07;;;;;;;20.50;11.30;;;13.20;99.90;;;;;;5080557;28;20814;-54
2021/10/02 05:34:33;;;;;;;18.55;12.10;;;13.20;99.90;;;;;;5087328;28;20374;-54
2021/10/02 05:37:00;;;;;;;20.85;11.90;;;13.20;99.90;;;;;;5069833;28;22348;-55
2021/10/02 05:39:26;;;;;;;18.55;11.20;;;13.20;99.90;;;;;;5077895;28;20431;-54
2021/10/02 05:41:52;;;;;;;17.58;10.98;;;14.70;99.90;;;;;;5091298;28;20408;-54
2021/10/02 05:44:18;;;;;;;19.40;11.47;;;13.30;99.90;;;;;;5091632;28;20736;-54
2021/10/02 05:46:43;;;;;;;19.60;11.60;;;13.20;99.90;;;;;;5108792;28;21082;-54
2021/10/02 05:49:09;;;;;;;16.50;10.53;;;13.10;99.90;;;;;;5082733;28;20891;-54
2021/10/02 05:51:35;;;;;;;18.35;10.90;;;13.20;99.90;;;;;;5087387;28;20747;-55
2021/10/02 05:54:00;;;;;;;16.90;10.37;;;13.40;99.90;;;;;;5088781;28;20839;-54
2021/10/02 05:56:26;;;;;;;17.67;10.45;;;13.60;99.90;;;;;;5088747;28;20512;-56
2021/10/02 05:58:52;;;;;;;15.30;9.30;;;13.90;99.90;;;;;;5088606;28;20422;-54
2021/10/02 06:01:18;;;;;;;16.25;9.35;;;14.60;99.90;;;;;;5088482;28;20770;-54
2021/10/02 06:03:45;;;;;;;14.80;8.95;;;14.90;99.90;;;;;;5087797;28;20735;-54
2021/10/02 06:06:14;;;;;;;17.07;9.10;;;15.10;99.90;;;;;;5088007;28;20397;-54
2021/10/02 06:08:40;;;;;;;16.17;9.73;;;15.10;99.90;;;;;;5087888;28;20890;-56
2021/10/02 06:11:06;;;;;;;13.80;8.60;;;15.50;99.90;;;;;;5089571;28;20374;-56
2021/10/02 06:13:35;;;;;;;17.53;9.67;;;15.80;99.90;;;;;;5088714;28;20389;-54
2021/10/02 06:16:01;;;;;;;12.93;8.90;;;16.10;99.90;;;;;;5088972;28;20430;-53
2021/10/02 06:18:27;;;;;;;16.63;9.27;;;16.20;99.90;;;;;;5092753;28;20463;-57
2021/10/02 06:20:53;;;;;;;14.88;9.15;;;15.90;99.90;;;;;;5092358;28;20493;-56
2021/10/02 06:23:19;;;;;;;14.07;8.70;;;15.80;99.90;;;;;;5092853;28;20392;-56
2021/10/02 06:25:45;;;;;;;14.50;9.50;;;16.20;99.90;;;;;;5092524;28;20400;-56
2021/10/02 06:28:10;;;;;;;15.90;9.50;;;16.60;99.90;;;;;;5092843;28;20464;-56
2021/10/02 06:30:36;;;;;;;17.83;9.43;;;16.70;99.90;;;;;;5092016;28;20502;-53
2021/10/02 06:33:02;;;;;;;16.87;8.90;;;16.60;99.90;;;;;;5092998;28;20846;-56
2021/10/02 06:35:28;;;;;;;14.77;9.13;;;16.40;99.90;;;;;;5095241;28;20414;-57
2021/10/02 06:37:54;;;;;;;15.30;9.60;;;16.10;99.90;;;;;;5102144;28;20935;-55
2021/10/02 06:40:20;;;;;;;16.35;9.63;;;15.80;99.90;;;;;;5106062;27;20839;-55
2021/10/02 06:42:45;;;;;;;18.92;9.77;;;15.80;99.90;;;;;;5083610;28;20402;-56
2021/10/02 06:45:11;;;;;;;16.20;9.97;;;15.90;99.90;;;;;;5094700;28;20484;-56
2021/10/02 06:47:37;;;;;;;15.52;9.15;;;15.80;99.90;;;;;;5081963;28;20389;-55
2021/10/02 06:50:04;;;;;;;15.10;9.50;;;15.70;99.90;;;;;;5092095;28;20366;-55
2021/10/02 06:52:31;;;;;;;15.35;9.30;;;15.60;99.90;;;;;;5091422;28;20835;-57
2021/10/02 06:54:57;;;;;;;16.63;9.50;;;15.70;99.90;;;;;;5091180;28;20754;-55
2021/10/02 06:57:23;;;;;;;16.33;9.50;;;15.90;99.90;;;;;;5092310;28;20455;-55
2021/10/02 06:59:49;;;;;;;14.18;9.13;;;16.00;99.90;;;;;;5091609;28;20382;-56
2021/10/02 07:02:16;;;;;;;14.88;9.38;;;16.40;99.90;;;;;;5092466;28;20456;-55
2021/10/02 07:04:42;;;;;;;16.75;9.38;;;16.70;99.90;;;;;;5091194;28;20897;-55
2021/10/02 07:07:08;;;;;;;16.70;8.80;;;17.00;99.90;;;;;;5091916;28;20374;-54
2021/10/02 07:09:34;;;;;;;14.45;9.10;;;17.20;99.90;;;;;;5091430;28;20469;-53
2021/10/02 07:12:01;;;;;;;17.63;10.27;;;17.40;99.90;;;;;;5091648;28;20378;-53
2021/10/02 07:14:27;;;;;;;16.57;9.70;;;17.70;99.90;;;;;;5091526;28;20752;-55
2021/10/02 07:16:52;;;;;;;16.88;9.38;;;18.20;99.90;;;;;;5091531;28;20776;-54
2021/10/02 07:19:18;;;;;;;17.93;9.80;;;18.70;99.90;;;;;;5092098;28;20378;-54
2021/10/02 07:21:44;;;;;;;20.48;10.13;;;19.10;99.90;;;;;;5091043;28;20447;-53
2021/10/02 07:24:13;;;;;;;14.17;9.20;;;19.30;99.90;;;;;;5091900;28;20885;-55
2021/10/02 07:26:40;;;;;;;13.88;9.25;;;19.90;99.90;;;;;;5090878;28;20386;-55
2021/10/02 07:29:06;;;;;;;16.08;8.90;;;20.90;99.90;;;;;;5092012;28;20385;-55
2021/10/02 07:31:32;;;;;;;13.20;9.20;;;21.10;99.90;;;;;;5091248;28;20378;-55
2021/10/02 07:33:57;;;;;;;13.70;9.18;;;21.20;99.90;;;;;;5091548;28;20926;-55
2021/10/02 07:36:23;;;;;;;14.10;9.50;;;20.70;99.90;;;;;;5091153;28;20397;-55
2021/10/02 07:38:49;;;;;;;15.90;9.70;;;20.10;99.90;;;;;;5090401;28;20369;-53
2021/10/02 07:41:16;;;;;;;15.70;9.60;;;19.70;99.90;;;;;;5090194;28;20862;-53
2021/10/02 07:43:43;;;;;;;14.52;9.85;;;19.60;99.90;;;;;;5090068;28;20450;-55
2021/10/02 07:46:12;;;;;;;15.10;9.15;;;20.40;99.90;;;;;;5091418;28;20467;-56
2021/10/02 07:48:42;;;;;;;14.65;9.05;;;21.90;99.90;;;;;;5089135;28;20451;-56
2021/10/02 07:51:10;;;;;;;14.20;8.50;;;23.60;99.90;;;;;;5090341;28;20397;-56
2021/10/02 07:53:38;;;;;;;14.75;9.30;;;24.50;99.90;;;;;;5090330;28;20409;-56
2021/10/02 07:56:06;;;;;;;13.82;9.32;;;24.90;99.90;;;;;;5089539;28;20394;-54
2021/10/02 07:58:32;;;;;;;14.90;9.25;;;24.90;99.90;;;;;;5090206;28;20435;-56
2021/10/02 08:00:58;;;;;;;17.77;9.35;;;24.80;99.40;;;;;;5089724;28;20412;-55
2021/10/02 08:03:24;;;;;;;14.90;10.50;;;25.70;97.50;;;;;;5090684;28;20553;-54
2021/10/02 08:05:51;;;;;;;15.68;9.48;;;26.00;96.00;;;;;;5089459;28;20417;-55
2021/10/02 08:08:19;;;;;;;18.88;13.48;;;25.60;96.30;;;;;;5091047;28;20891;-58
2021/10/02 08:10:48;;;;;;;17.40;8.90;;;26.00;95.40;;;;;;5088556;28;20439;-57
2021/10/02 08:13:15;;;;;;;15.77;8.70;;;26.70;94.50;;;;;;5090911;28;20410;-57
2021/10/02 08:15:43;;;;;;;16.57;9.00;;;27.80;91.50;;;;;;5089898;28;20394;-57
2021/10/02 08:18:11;;;;;;;19.50;14.18;;;27.60;90.80;;;;;;5090635;28;20815;-57
2021/10/02 08:20:39;;;;;;;17.60;14.60;;;28.00;89.60;;;;;;5089706;28;20434;-57
2021/10/02 08:23:05;;;;;;;13.98;8.82;;;28.00;88.70;;;;;;5090676;28;20384;-57
2021/10/02 08:25:32;;;;;;;18.63;11.63;;;28.10;87.00;;;;;;5088949;28;20485;-58
2021/10/02 08:27:59;;;;;;;15.57;13.27;;;27.90;86.80;;;;;;5090210;28;20383;-57
2021/10/02 08:30:25;;;;;;;16.85;13.63;;;28.60;82.80;;;;;;5090391;28;20373;-55
2021/10/02 08:32:52;;;;;;;20.45;18.27;;;28.80;80.70;;;;;;5089732;28;20385;-58
2021/10/02 08:35:17;;;;;;;15.82;14.15;;;28.80;79.40;;;;;;5090091;28;20391;-57
2021/10/02 08:37:43;;;;;;;16.50;14.90;;;28.50;78.40;;;;;;5089141;28;20469;-58
2021/10/02 08:40:13;;;;;;;19.85;18.25;;;28.30;78.70;;;;;;5089803;28;20401;-56
2021/10/02 08:42:40;;;;;;;19.67;18.08;;;28.80;75.00;;;;;;5089421;28;20712;-58
2021/10/02 08:45:08;;;;;;;17.13;15.73;;;28.20;75.90;;;;;;5088802;28;20378;-58
2021/10/02 08:47:40;;;;;;;13.30;11.90;;;28.30;74.70;;;;;;5089155;28;20382;-56
2021/10/02 08:50:07;;;;;;;19.83;18.02;;;29.70;69.20;;;;;;5090143;28;20455;-56
2021/10/02 08:52:34;;;;;;;11.90;10.52;;;31.20;64.30;;;;;;5088598;28;20409;-57
2021/10/02 08:55:00;;;;;;;11.63;8.73;;;31.70;62.00;;;;;;5089808;28;20378;-56
2021/10/02 08:57:27;;;;;;;17.77;15.93;;;32.30;58.90;;;;;;5089506;28;20416;-56
2021/10/02 08:59:55;;;;;;;14.32;10.70;;;31.80;58.80;;;;;;5088499;28;20379;-56
2021/10/02 09:02:23;;;;;;;8.93;4.90;;;31.10;59.90;;;;;;5089633;28;20378;-56
2021/10/02 09:04:50;;;;;;;8.90;6.50;;;31.80;55.10;;;;;;5088656;28;20508;-56
2021/10/02 09:07:17;;;;;;;7.03;4.35;;;32.50;54.00;;;;;;5089330;28;20405;-56
2021/10/02 09:09:44;;;;;;;7.90;4.32;;;32.80;49.10;;;;;;5088858;28;20392;-56
2021/10/02 09:12:11;;;;;;;7.10;3.70;;;31.40;50.40;;;;;;5089539;28;20383;-56
2021/10/02 09:14:37;;;;;;;10.27;5.78;;;30.90;51.40;;;;;;5088382;28;20394;-56
2021/10/02 09:17:03;;;;;;;9.70;4.43;;;30.00;54.40;;;;;;5089129;28;20744;-56
2021/10/02 09:19:32;;;;;;;8.43;4.68;;;30.30;54.60;;;;;;5089461;28;20370;-56
2021/10/02 09:22:09;;;;;;;8.57;4.70;;;30.90;54.00;;;;;;5088636;28;20406;-56
2021/10/02 09:24:40;;;;;;;10.50;4.32;;;30.80;54.90;;;;;;5088187;28;20459;-57
2021/10/02 09:27:18;;;;;;;10.30;4.40;;;30.70;54.50;;;;;;5089039;28;20386;-56
2021/10/02 09:30:07;;;;;;;8.13;4.03;;;31.10;52.20;;;;;;5088313;28;20374;-56
2021/10/02 09:32:35;;;;;;;7.53;2.55;;;31.80;51.20;;;;;;5088013;28;20458;-57
2021/10/02 09:35:07;;;;;;;6.63;2.20;;;31.40;47.40;;;;;;5089121;28;20754;-56
2021/10/02 09:37:35;;;;;;;5.73;2.00;;;31.40;46.60;;;;;;5088077;28;20370;-57
2021/10/02 09:40:06;;;;;;;6.10;1.73;;;30.80;47.00;;;;;;5089020;28;20378;-56
2021/10/02 09:42:36;;;;;;;5.40;1.80;;;30.30;45.00;;;;;;5088433;28;20386;-57
2021/10/02 09:45:18;;;;;;;6.65;4.45;;;30.70;45.40;;;;;;5088826;28;20394;-56
2021/10/02 09:47:44;;;;;;;7.90;5.95;;;30.00;44.50;;;;;;5088210;28;20382;-59
2021/10/02 09:50:16;;;;;;;7.80;6.90;;;29.20;44.90;;;;;;5089477;28;20385;-58
2021/10/02 09:52:43;;;;;;;7.90;6.00;;;29.00;45.80;;;;;;5091040;28;20370;-56
2021/10/02 09:55:37;;;;;;;6.75;5.70;;;29.50;45.90;;;;;;5093023;28;20474;-56
2021/10/02 09:58:07;;;;;;;6.88;5.50;;;29.00;44.90;;;;;;5091919;28;20413;-58
2021/10/02 10:01:01;;;;;;;7.13;6.43;;;28.80;46.70;;;;;;5092962;28;20409;-59
2021/10/02 10:03:40;;;;;;;7.30;6.20;;;28.50;48.10;;;;;;5090148;28;20941;-58
2021/10/02 10:06:17;;;;;;;7.60;6.55;;;28.80;47.50;;;;;;5093393;28;20381;-59
2021/10/02 10:08:43;;;;;;;7.63;6.50;;;28.50;47.40;;;;;;5092257;28;20457;-59
2021/10/02 10:11:11;;;;;;;7.82;6.97;;;29.00;47.90;;;;;;5092999;28;20469;-58
2021/10/02 10:13:37;;;;;;;8.40;7.10;;;28.80;49.30;;;;;;5091869;28;20405;-59
2021/10/02 10:16:08;;;;;;;9.90;6.30;;;28.70;49.10;;;;;;5093285;28;20782;-58
2021/10/02 10:18:38;;;;;;;8.50;6.30;;;28.50;49.60;;;;;;5092144;28;20743;-59
2021/10/02 10:21:13;;;;;;;9.35;6.95;;;28.40;49.80;;;;;;5092636;28;20751;-59
2021/10/02 10:23:41;;;;;;;8.80;7.37;;;28.30;49.50;;;;;;5091577;28;20377;-57
2021/10/02 10:26:10;;;;;;;7.90;6.65;;;28.80;50.10;;;;;;5092504;28;20398;-57
2021/10/02 10:28:39;;;;;;;8.98;7.53;;;28.70;50.40;;;;;;5091380;28;20382;-57
2021/10/02 10:31:24;;;;;;;8.10;7.10;;;28.10;50.30;;;;;;5092234;28;20382;-57
2021/10/02 10:33:53;;;;;;;8.60;7.20;;;27.60;51.70;;;;;;5091901;28;20378;-56
2021/10/02 10:36:21;;;;;;;8.70;7.50;;;27.00;53.30;;;;;;5092501;28;20874;-56
2021/10/02 10:38:49;;;;;;;11.40;7.25;;;27.30;53.20;;;;;;5091647;28;20720;-58
2021/10/02 10:41:16;;;;;;;9.27;7.70;;;27.70;52.80;;;;;;5092194;28;20406;-58
2021/10/02 10:43:42;;;;;;;8.57;7.72;;;27.40;53.80;;;;;;5092189;28;20379;-56
2021/10/02 10:46:11;;;;;;;8.00;7.20;;;27.40;53.10;;;;;;5091853;28;20385;-57
2021/10/02 10:48:37;;;;;;;9.00;7.78;;;27.20;53.30;;;;;;5090775;28;20414;-57
2021/10/02 10:51:10;;;;;;;7.70;6.30;;;27.60;54.10;;;;;;5092289;28;20382;-57
2021/10/02 10:53:54;;;;;;;9.50;7.32;;;27.20;53.90;;;;;;5091421;28;20507;-57
2021/10/02 10:56:41;;;;;;;8.70;7.70;;;26.80;54.80;;;;;;5091959;28;20815;-56
2021/10/02 10:59:08;;;;;;;9.00;7.60;;;26.90;53.90;;;;;;5071350;28;20855;-56
2021/10/02 11:01:36;;;;;;;9.18;8.25;;;26.60;54.80;;;;;;5071035;28;20415;-57
2021/10/02 11:04:03;;;;;;;9.52;8.63;;;27.00;54.50;;;;;;5071023;28;20376;-58
2021/10/02 11:06:50;;;;;;;8.70;7.55;;;27.10;54.60;;;;;;5071558;28;20404;-58
2021/10/02 11:09:32;;;;;;;9.90;7.77;;;27.20;54.80;;;;;;5071663;28;20390;-57
2021/10/02 11:11:59;;;;;;;8.80;7.90;;;26.70;54.70;;;;;;5070576;28;20380;-57
2021/10/02 11:14:45;;;;;;;9.50;8.50;;;26.70;55.40;;;;;;5071838;28;20398;-57
2021/10/02 11:17:11;;;;;;;8.60;7.68;;;26.00;56.50;;;;;;5071012;28;20936;-56
2021/10/02 11:19:42;;;;;;;8.40;7.25;;;26.10;56.80;;;;;;5070670;28;20491;-57
2021/10/02 11:23:08;;;;;;;10.10;7.50;;;25.40;56.70;;;;;;5071364;28;21014;-57
2021/10/02 11:25:35;;;;;;;9.95;7.38;;;25.40;58.00;;;;;;5008622;28;20400;-57
2021/10/02 11:28:28;;;;;;;10.73;8.45;;;25.10;57.70;;;;;;5043364;28;20387;-57
2021/10/02 11:30:56;;;;;;;8.80;7.20;;;24.80;57.80;;;;;;5067879;28;20449;-57
2021/10/02 11:33:53;;;;;;;8.10;7.30;;;25.10;57.90;;;;;;5071013;28;20449;-57
2021/10/02 11:36:31;;;;;;;8.00;7.20;;;25.10;57.30;;;;;;5070811;28;20463;-57
2021/10/02 11:39:11;;;;;;;10.20;8.10;;;24.60;57.90;;;;;;5070014;28;20437;-57
2021/10/02 11:41:54;;;;;;;9.48;8.48;;;24.50;58.20;;;;;;5069901;28;20447;-57
2021/10/02 11:44:20;;;;;;;9.32;7.70;;;24.50;59.30;;;;;;5070548;28;20463;-57
2021/10/02 11:46:46;;;;;;;8.80;7.90;;;24.90;58.70;;;;;;5070082;28;20476;-57
2021/10/02 11:49:20;;;;;;;9.27;7.23;;;25.50;58.70;;;;;;5070798;28;20379;-57
2021/10/02 11:52:08;;;;;;;10.00;7.80;;;26.00;57.40;;;;;;5069854;28;20391;-57
2021/10/02 11:54:33;;;;;;;10.57;7.05;;;25.90;57.40;;;;;;5070171;28;20388;-57
2021/10/02 11:57:12;;;;;;;7.70;6.30;;;25.90;57.10;;;;;;5072261;28;20410;-57
2021/10/02 11:59:46;;;;;;;7.72;6.93;;;26.00;56.20;;;;;;5088433;28;20886;-57
2021/10/02 12:02:13;;;;;;;7.80;7.00;;;25.50;55.70;;;;;;5089767;28;20440;-57
2021/10/02 12:04:39;;;;;;;7.97;7.18;;;25.10;56.30;;;;;;5089366;28;20395;-57
2021/10/02 12:07:05;;;;;;;7.80;7.00;;;25.20;56.80;;;;;;5090481;28;20382;-57
2021/10/02 12:09:31;;;;;;;8.00;7.20;;;25.40;56.40;;;;;;5090645;28;20455;-57
2021/10/02 12:11:58;;;;;;;7.95;6.70;;;25.50;56.30;;;;;;5089146;28;20421;-57
2021/10/02 12:14:27;;;;;;;7.78;6.68;;;25.50;56.60;;;;;;5089438;28;20374;-57
2021/10/02 12:17:02;;;;;;;9.13;7.20;;;25.90;57.10;;;;;;5089223;28;20738;-57
2021/10/02 12:19:29;;;;;;;8.63;6.90;;;25.90;57.30;;;;;;5090575;28;20377;-57
2021/10/02 12:22:04;;;;;;;7.53;6.72;;;25.50;56.60;;;;;;5089201;28;20614;-57
2021/10/02 12:24:32;;;;;;;7.77;6.97;;;25.50;56.00;;;;;;5089887;28;20382;-57
2021/10/02 12:27:01;;;;;;;9.73;6.70;;;25.50;55.80;;;;;;5089170;28;20446;-57
2021/10/02 12:29:37;;;;;;;9.43;6.95;;;25.50;57.30;;;;;;5090054;28;20422;-57
2021/10/02 12:32:08;;;;;;;8.70;7.80;;;25.40;56.40;;;;;;5089583;28;20382;-57
2021/10/02 12:34:34;;;;;;;8.10;7.30;;;25.10;56.20;;;;;;5090112;28;20669;-57
2021/10/02 12:37:13;;;;;;;7.85;6.80;;;24.90;56.30;;;;;;5090530;28;20380;-57
2021/10/02 12:40:00;;;;;;;8.70;6.40;;;24.80;56.90;;;;;;5089607;28;20386;-57
2021/10/02 12:42:33;;;;;;;7.43;6.60;;;24.80;57.50;;;;;;5089966;28;20915;-57
2021/10/02 12:44:59;;;;;;;7.60;6.22;;;24.90;58.20;;;;;;5089037;28;20378;-57
2021/10/02 12:47:27;;;;;;;7.45;6.40;;;24.80;57.30;;;;;;5090107;28;20479;-56
2021/10/02 12:49:57;;;;;;;8.70;6.50;;;24.40;57.80;;;;;;5089267;28;20382;-56
2021/10/02 12:52:23;;;;;;;7.78;6.95;;;24.40;58.20;;;;;;5090165;28;20422;-57
2021/10/02 12:54:51;;;;;;;7.50;6.50;;;24.50;58.00;;;;;;5089978;28;20386;-57
2021/10/02 12:57:32;;;;;;;9.18;7.07;;;24.40;58.40;;;;;;5088241;28;20505;-57
2021/10/02 12:59:58;;;;;;;8.30;6.68;;;24.30;58.40;;;;;;5088357;28;20400;-57
2021/10/02 13:02:27;;;;;;;8.25;7.45;;;24.50;58.90;;;;;;5089440;28;20407;-57
2021/10/02 13:04:53;;;;;;;8.10;6.93;;;24.80;59.40;;;;;;5088681;28;20389;-57
2021/10/02 13:07:26;;;;;;;8.70;6.80;;;24.90;58.60;;;;;;5089297;28;20424;-57
2021/10/02 13:10:13;;;;;;;8.70;6.85;;;25.30;58.30;;;;;;5088474;28;20375;-57
2021/10/02 13:12:45;;;;;;;10.60;6.97;;;25.50;59.00;;;;;;5088357;28;20382;-57
2021/10/02 13:15:51;;;;;;;8.60;7.05;;;25.20;59.40;;;;;;5089033;28;20382;-57
2021/10/02 13:18:19;;;;;;;7.70;6.78;;;25.20;58.90;;;;;;5071252;28;20445;-57
2021/10/02 13:20:48;;;;;;;13.10;6.88;;;25.20;58.70;;;;;;5088600;28;20398;-57
2021/10/02 13:23:20;;;;;;;8.75;6.00;;;25.30;59.10;;;;;;5088768;28;20386;-57
2021/10/02 13:25:52;;;;;;;8.10;7.30;;;25.50;59.20;;;;;;5087936;28;20390;-57
2021/10/02 13:28:23;;;;;;;7.88;7.00;;;25.30;59.50;;;;;;5089115;28;20404;-57
2021/10/02 13:30:49;;;;;;;7.85;6.88;;;25.40;59.00;;;;;;5088677;28;20447;-57
2021/10/02 13:33:16;;;;;;;12.68;7.05;;;25.60;59.60;;;;;;5089486;28;20375;-57
2021/10/02 13:35:56;;;;;;;9.10;7.60;;;25.90;60.40;;;;;;5087836;28;20390;-57
2021/10/02 13:38:39;;;;;;;8.77;6.93;;;26.20;58.20;;;;;;5089469;28;20461;-57
2021/10/02 13:41:08;;;;;;;8.07;7.00;;;26.10;58.40;;;;;;5088448;28;20537;-57
2021/10/02 13:43:48;;;;;;;8.38;7.00;;;25.80;59.00;;;;;;5088861;28;20389;-61